sensor_id;sensor_type;location;lat;lon;timestamp;temperature;humidity
3566;DHT22;1797;51.844;7.684;2022-08-25T00:01:25;21.40;99.90
3566;DHT22;1797;51.844;7.684;2022-08-25T00:03:51;21.40;99.90
3566;DHT22;1797;51.844;7.684;2022-08-25T00:06:18;21.40;99.90
3566;DHT22;1797;51.844;7.684;2022-08-25T00:08:44;21.40;1.00
3566;DHT22;1797;51.844;7.684;2022-08-25T00:11:14;21.30;1.00
3566;DHT22;1797;51.844;7.684;2022-08-25T00:13:45;21.20;1.00
3566;DHT22;1797;51.844;7.684;2022-08-25T00:16:13;21.10;1.00
3566;DHT22;1797;51.844;7.684;2022-08-25T00:18:40;21.00;1.00
3566;DHT22;1797;51.844;7.684;2022-08-25T00:21:07;20.90;1.00
3566;DHT22;1797;51.844;7.684;2022-08-25T00:23:33;20.80;1.00
3566;DHT22;1797;51.844;7.684;2022-08-25T00:25:58;20.80;1.00
3566;DHT22;1797;51.844;7.684;2022-08-25T00:28:24;20.80;1.00
3566;DHT22;1797;51.844;7.684;2022-08-25T00:30:50;20.60;1.00
3566;DHT22;1797;51.844;7.684;2022-08-25T00:33:16;20.60;1.00
3566;DHT22;1797;51.844;7.684;2022-08-25T00:35:42;20.50;1.00
3566;DHT22;1797;51.844;7.684;2022-08-25T00:38:10;20.40;1.00
3566;DHT22;1797;51.844;7.684;2022-08-25T00:40:36;20.90;1.00
3566;DHT22;1797;51.844;7.684;2022-08-25T00:43:03;20.50;1.00
3566;DHT22;1797;51.844;7.684;2022-08-25T00:45:30;20.60;1.00
3566;DHT22;1797;51.844;7.684;2022-08-25T00:47:56;20.50;1.00
3566;DHT22;1797;51.844;7.684;2022-08-25T00:50:21;20.60;1.00
3566;DHT22;1797;51.844;7.684;2022-08-25T00:52:50;20.50;1.00
3566;DHT22;1797;51.844;7.684;2022-08-25T00:55:20;20.30;1.00
3566;DHT22;1797;51.844;7.684;2022-08-25T00:58:02;20.40;1.00
3566;DHT22;1797;51.844;7.684;2022-08-25T01:00:36;20.30;1.00
3566;DHT22;1797;51.844;7.684;2022-08-25T01:03:02;20.40;1.00
3566;DHT22;1797;51.844;7.684;2022-08-25T01:05:28;20.20;1.00
3566;DHT22;1797;51.844;7.684;2022-08-25T01:07:59;20.10;1.00
3566;DHT22;1797;51.844;7.684;2022-08-25T01:12:57;20.10;99.90
3566;DHT22;1797;51.844;7.684;2022-08-25T01:15:24;20.10;99.90
3566;DHT22;1797;51.844;7.684;2022-08-25T01:20:21;19.90;1.00
3566;DHT22;1797;51.844;7.684;2022-08-25T01:22:48;20.40;1.00
3566;DHT22;1797;51.844;7.684;2022-08-25T01:28:18;19.90;1.00
3566;DHT22;1797;51.844;7.684;2022-08-25T01:30:45;19.90;1.00
3566;DHT22;1797;51.844;7.684;2022-08-25T01:33:12;19.90;99.90
3566;DHT22;1797;51.844;7.684;2022-08-25T01:38:06;19.80;1.00
3566;DHT22;1797;51.844;7.684;2022-08-25T01:40:32;19.90;1.00
3566;DHT22;1797;51.844;7.684;2022-08-25T01:45:42;19.70;1.00
3566;DHT22;1797;51.844;7.684;2022-08-25T01:48:08;19.60;44.20
3566;DHT22;1797;51.844;7.684;2022-08-25T01:50:35;19.60;99.90
3566;DHT22;1797;51.844;7.684;2022-08-25T01:53:27;19.50;1.00
3566;DHT22;1797;51.844;7.684;2022-08-25T01:55:53;19.50;1.00
3566;DHT22;1797;51.844;7.684;2022-08-25T01:58:35;19.60;1.00
3566;DHT22;1797;51.844;7.684;2022-08-25T02:01:04;19.60;1.00
3566;DHT22;1797;51.844;7.684;2022-08-25T02:03:30;19.70;3.10
3566;DHT22;1797;51.844;7.684;2022-08-25T02:05:57;19.70;95.90
3566;DHT22;1797;51.844;7.684;2022-08-25T02:08:23;19.70;99.90
3566;DHT22;1797;51.844;7.684;2022-08-25T02:10:51;19.70;99.90
3566;DHT22;1797;51.844;7.684;2022-08-25T02:13:18;19.80;99.90
3566;DHT22;1797;51.844;7.684;2022-08-25T02:15:47;19.70;99.90
3566;DHT22;1797;51.844;7.684;2022-08-25T02:18:14;19.70;14.90
3566;DHT22;1797;51.844;7.684;2022-08-25T02:20:39;19.80;83.90
3566;DHT22;1797;51.844;7.684;2022-08-25T02:23:06;19.70;99.90
3566;DHT22;1797;51.844;7.684;2022-08-25T02:25:32;19.60;99.90
3566;DHT22;1797;51.844;7.684;2022-08-25T02:27:58;19.50;99.90
3566;DHT22;1797;51.844;7.684;2022-08-25T02:30:24;19.30;1.00
3566;DHT22;1797;51.844;7.684;2022-08-25T02:32:50;19.20;1.00
3566;DHT22;1797;51.844;7.684;2022-08-25T02:35:16;19.10;1.00
3566;DHT22;1797;51.844;7.684;2022-08-25T02:37:42;18.90;1.00
3566;DHT22;1797;51.844;7.684;2022-08-25T02:40:08;19.00;1.00
3566;DHT22;1797;51.844;7.684;2022-08-25T02:42:34;19.00;1.00
3566;DHT22;1797;51.844;7.684;2022-08-25T02:44:59;18.90;99.90
3566;DHT22;1797;51.844;7.684;2022-08-25T02:47:25;18.80;99.90
3566;DHT22;1797;51.844;7.684;2022-08-25T02:49:51;19.00;99.90
3566;DHT22;1797;51.844;7.684;2022-08-25T02:52:17;18.80;99.90
3566;DHT22;1797;51.844;7.684;2022-08-25T02:54:43;18.80;99.90
3566;DHT22;1797;51.844;7.684;2022-08-25T02:57:08;18.70;99.90
3566;DHT22;1797;51.844;7.684;2022-08-25T02:59:36;18.60;99.90
3566;DHT22;1797;51.844;7.684;2022-08-25T03:02:02;18.80;99.90
3566;DHT22;1797;51.844;7.684;2022-08-25T03:04:28;18.50;99.90
3566;DHT22;1797;51.844;7.684;2022-08-25T03:06:55;18.50;99.90
3566;DHT22;1797;51.844;7.684;2022-08-25T03:09:20;18.50;99.90
3566;DHT22;1797;51.844;7.684;2022-08-25T03:11:47;18.50;99.90
3566;DHT22;1797;51.844;7.684;2022-08-25T03:14:13;18.50;1.00
3566;DHT22;1797;51.844;7.684;2022-08-25T03:16:38;18.40;1.00
3566;DHT22;1797;51.844;7.684;2022-08-25T03:19:05;18.50;1.00
3566;DHT22;1797;51.844;7.684;2022-08-25T03:21:30;18.40;1.00
3566;DHT22;1797;51.844;7.684;2022-08-25T03:23:57;18.20;1.00
3566;DHT22;1797;51.844;7.684;2022-08-25T03:26:23;18.30;1.00
3566;DHT22;1797;51.844;7.684;2022-08-25T03:29:08;18.20;1.00
3566;DHT22;1797;51.844;7.684;2022-08-25T03:31:35;18.20;1.00
3566;DHT22;1797;51.844;7.684;2022-08-25T03:34:01;18.20;1.00
3566;DHT22;1797;51.844;7.684;2022-08-25T03:36:28;18.10;1.00
3566;DHT22;1797;51.844;7.684;2022-08-25T03:38:53;16.30;99.90
3566;DHT22;1797;51.844;7.684;2022-08-25T03:41:24;18.00;1.00
3566;DHT22;1797;51.844;7.684;2022-08-25T03:43:52;18.10;99.90
3566;DHT22;1797;51.844;7.684;2022-08-25T03:48:47;18.10;99.90
3566;DHT22;1797;51.844;7.684;2022-08-25T03:51:22;18.30;99.90
3566;DHT22;1797;51.844;7.684;2022-08-25T03:56:15;17.50;99.90
3566;DHT22;1797;51.844;7.684;2022-08-25T03:58:41;17.70;99.90
3566;DHT22;1797;51.844;7.684;2022-08-25T04:06:02;18.00;1.00
3566;DHT22;1797;51.844;7.684;2022-08-25T04:08:28;18.10;1.00
3566;DHT22;1797;51.844;7.684;2022-08-25T04:10:53;17.90;1.00
3566;DHT22;1797;51.844;7.684;2022-08-25T04:13:19;17.90;1.00
3566;DHT22;1797;51.844;7.684;2022-08-25T04:18:12;17.70;84.00
3566;DHT22;1797;51.844;7.684;2022-08-25T04:20:41;17.30;99.90
3566;DHT22;1797;51.844;7.684;2022-08-25T04:23:08;17.70;99.90
3566;DHT22;1797;51.844;7.684;2022-08-25T04:28:01;17.60;99.90
3566;DHT22;1797;51.844;7.684;2022-08-25T04:30:27;17.60;1.00
3566;DHT22;1797;51.844;7.684;2022-08-25T04:32:52;17.50;99.90
3566;DHT22;1797;51.844;7.684;2022-08-25T04:35:18;17.50;99.90
3566;DHT22;1797;51.844;7.684;2022-08-25T04:37:44;17.50;99.90
3566;DHT22;1797;51.844;7.684;2022-08-25T04:40:12;17.50;99.90
3566;DHT22;1797;51.844;7.684;2022-08-25T04:42:37;17.80;99.90
3566;DHT22;1797;51.844;7.684;2022-08-25T04:45:04;17.70;99.90
3566;DHT22;1797;51.844;7.684;2022-08-25T04:47:30;17.40;99.90
3566;DHT22;1797;51.844;7.684;2022-08-25T04:49:56;17.40;1.00
3566;DHT22;1797;51.844;7.684;2022-08-25T04:52:21;18.70;61.50
3566;DHT22;1797;51.844;7.684;2022-08-25T04:54:47;17.40;1.00
3566;DHT22;1797;51.844;7.684;2022-08-25T04:59:39;17.20;1.00
3566;DHT22;1797;51.844;7.684;2022-08-25T05:02:05;17.30;99.90
3566;DHT22;1797;51.844;7.684;2022-08-25T05:04:33;17.30;99.90
3566;DHT22;1797;51.844;7.684;2022-08-25T05:06:59;17.40;99.90
3566;DHT22;1797;51.844;7.684;2022-08-25T05:09:25;17.30;99.90
3566;DHT22;1797;51.844;7.684;2022-08-25T05:11:51;17.40;99.90
3566;DHT22;1797;51.844;7.684;2022-08-25T05:14:17;17.30;99.90
3566;DHT22;1797;51.844;7.684;2022-08-25T05:19:12;17.30;99.90
3566;DHT22;1797;51.844;7.684;2022-08-25T05:21:38;17.30;1.00
3566;DHT22;1797;51.844;7.684;2022-08-25T05:24:04;17.40;1.00
3566;DHT22;1797;51.844;7.684;2022-08-25T05:26:33;17.40;1.00
3566;DHT22;1797;51.844;7.684;2022-08-25T05:29:00;17.40;1.00
3566;DHT22;1797;51.844;7.684;2022-08-25T05:31:27;17.60;1.00
3566;DHT22;1797;51.844;7.684;2022-08-25T05:33:53;16.90;1.00
3566;DHT22;1797;51.844;7.684;2022-08-25T05:38:47;17.50;1.00
3566;DHT22;1797;51.844;7.684;2022-08-25T05:41:16;17.50;1.00
3566;DHT22;1797;51.844;7.684;2022-08-25T05:43:43;17.60;1.00
3566;DHT22;1797;51.844;7.684;2022-08-25T05:46:09;17.60;1.00
3566;DHT22;1797;51.844;7.684;2022-08-25T05:48:35;17.60;1.00
3566;DHT22;1797;51.844;7.684;2022-08-25T05:51:04;17.80;99.90
3566;DHT22;1797;51.844;7.684;2022-08-25T05:53:30;17.80;99.90
3566;DHT22;1797;51.844;7.684;2022-08-25T05:55:57;16.70;99.90
3566;DHT22;1797;51.844;7.684;2022-08-25T05:58:24;18.00;99.90
3566;DHT22;1797;51.844;7.684;2022-08-25T06:00:50;19.70;99.90
3566;DHT22;1797;51.844;7.684;2022-08-25T06:03:16;18.10;99.90
3566;DHT22;1797;51.844;7.684;2022-08-25T06:05:42;18.30;99.50
3566;DHT22;1797;51.844;7.684;2022-08-25T06:08:08;18.30;99.90
3566;DHT22;1797;51.844;7.684;2022-08-25T06:10:35;18.50;99.90
3566;DHT22;1797;51.844;7.684;2022-08-25T06:13:01;18.40;65.50
3566;DHT22;1797;51.844;7.684;2022-08-25T06:15:26;18.40;53.10
3566;DHT22;1797;51.844;7.684;2022-08-25T06:17:53;18.60;14.60
3566;DHT22;1797;51.844;7.684;2022-08-25T06:20:23;18.60;99.90
3566;DHT22;1797;51.844;7.684;2022-08-25T06:22:49;18.80;99.90
3566;DHT22;1797;51.844;7.684;2022-08-25T06:25:18;18.70;99.90
3566;DHT22;1797;51.844;7.684;2022-08-25T06:27:44;19.30;99.90
3566;DHT22;1797;51.844;7.684;2022-08-25T06:30:13;18.70;99.90
3566;DHT22;1797;51.844;7.684;2022-08-25T06:32:40;19.50;1.00
3566;DHT22;1797;51.844;7.684;2022-08-25T06:35:10;19.10;1.00
3566;DHT22;1797;51.844;7.684;2022-08-25T06:37:36;18.80;99.90
3566;DHT22;1797;51.844;7.684;2022-08-25T06:40:04;19.40;99.90
3566;DHT22;1797;51.844;7.684;2022-08-25T06:42:31;19.50;1.00
3566;DHT22;1797;51.844;7.684;2022-08-25T06:52:16;19.90;99.90
3566;DHT22;1797;51.844;7.684;2022-08-25T07:04:31;20.60;99.90
3566;DHT22;1797;51.844;7.684;2022-08-25T07:06:57;20.80;83.80
3566;DHT22;1797;51.844;7.684;2022-08-25T07:16:48;21.40;1.00
3566;DHT22;1797;51.844;7.684;2022-08-25T07:19:16;21.50;1.00
3566;DHT22;1797;51.844;7.684;2022-08-25T07:21:48;21.70;1.00
3566;DHT22;1797;51.844;7.684;2022-08-25T07:24:16;21.80;1.00
3566;DHT22;1797;51.844;7.684;2022-08-25T07:26:42;21.80;1.00
3566;DHT22;1797;51.844;7.684;2022-08-25T07:29:14;22.30;1.00
3566;DHT22;1797;51.844;7.684;2022-08-25T07:31:42;22.80;1.00
3566;DHT22;1797;51.844;7.684;2022-08-25T07:34:10;23.20;99.90
3566;DHT22;1797;51.844;7.684;2022-08-25T07:36:57;23.70;99.90
3566;DHT22;1797;51.844;7.684;2022-08-25T07:39:25;24.00;99.90
3566;DHT22;1797;51.844;7.684;2022-08-25T07:41:54;24.30;99.90
3566;DHT22;1797;51.844;7.684;2022-08-25T07:44:21;24.50;1.00
3566;DHT22;1797;51.844;7.684;2022-08-25T07:46:47;24.70;5.70
3566;DHT22;1797;51.844;7.684;2022-08-25T07:49:13;25.10;27.80
3566;DHT22;1797;51.844;7.684;2022-08-25T07:51:38;25.30;99.90
3566;DHT22;1797;51.844;7.684;2022-08-25T07:56:31;25.90;1.00
3566;DHT22;1797;51.844;7.684;2022-08-25T07:58:57;26.30;1.00
3566;DHT22;1797;51.844;7.684;2022-08-25T08:01:23;26.50;1.00
3566;DHT22;1797;51.844;7.684;2022-08-25T08:03:50;26.80;1.00
3566;DHT22;1797;51.844;7.684;2022-08-25T08:06:19;27.00;1.00
3566;DHT22;1797;51.844;7.684;2022-08-25T08:08:46;27.40;1.00
3566;DHT22;1797;51.844;7.684;2022-08-25T08:11:29;27.70;1.00
3566;DHT22;1797;51.844;7.684;2022-08-25T08:13:56;28.00;1.00
3566;DHT22;1797;51.844;7.684;2022-08-25T08:16:24;28.20;1.00
3566;DHT22;1797;51.844;7.684;2022-08-25T08:18:51;28.40;1.00
3566;DHT22;1797;51.844;7.684;2022-08-25T08:21:27;28.50;99.90
3566;DHT22;1797;51.844;7.684;2022-08-25T08:23:53;28.70;99.90
3566;DHT22;1797;51.844;7.684;2022-08-25T08:26:19;28.90;99.90
3566;DHT22;1797;51.844;7.684;2022-08-25T08:28:45;29.10;99.90
3566;DHT22;1797;51.844;7.684;2022-08-25T08:31:11;29.30;99.90
3566;DHT22;1797;51.844;7.684;2022-08-25T08:33:37;29.50;99.90
3566;DHT22;1797;51.844;7.684;2022-08-25T08:38:33;30.20;99.90
3566;DHT22;1797;51.844;7.684;2022-08-25T08:44:41;30.10;99.90
3566;DHT22;1797;51.844;7.684;2022-08-25T08:49:48;30.60;99.90
3566;DHT22;1797;51.844;7.684;2022-08-25T08:52:19;30.70;99.90
3566;DHT22;1797;51.844;7.684;2022-08-25T08:54:58;30.90;99.90
3566;DHT22;1797;51.844;7.684;2022-08-25T08:57:28;31.10;99.90
3566;DHT22;1797;51.844;7.684;2022-08-25T08:59:58;31.20;99.90
3566;DHT22;1797;51.844;7.684;2022-08-25T09:02:37;31.30;99.90
3566;DHT22;1797;51.844;7.684;2022-08-25T09:05:10;31.50;99.90
3566;DHT22;1797;51.844;7.684;2022-08-25T09:07:47;31.60;99.90
3566;DHT22;1797;51.844;7.684;2022-08-25T09:10:14;31.70;99.90
3566;DHT22;1797;51.844;7.684;2022-08-25T09:13:05;32.00;99.90
3566;DHT22;1797;51.844;7.684;2022-08-25T09:15:48;32.30;99.90
3566;DHT22;1797;51.844;7.684;2022-08-25T09:18:45;32.20;99.90
3566;DHT22;1797;51.844;7.684;2022-08-25T09:23:54;32.50;99.90
3566;DHT22;1797;51.844;7.684;2022-08-25T09:26:33;32.60;99.90
3566;DHT22;1797;51.844;7.684;2022-08-25T09:29:02;32.60;99.90
3566;DHT22;1797;51.844;7.684;2022-08-25T09:31:36;32.80;99.90
3566;DHT22;1797;51.844;7.684;2022-08-25T09:34:06;33.10;99.90
3566;DHT22;1797;51.844;7.684;2022-08-25T09:36:35;33.20;99.90
3566;DHT22;1797;51.844;7.684;2022-08-25T09:39:01;33.30;99.90
3566;DHT22;1797;51.844;7.684;2022-08-25T09:47:04;33.50;99.90
3566;DHT22;1797;51.844;7.684;2022-08-25T09:49:39;33.70;99.90
3566;DHT22;1797;51.844;7.684;2022-08-25T09:55:28;34.10;99.90
3566;DHT22;1797;51.844;7.684;2022-08-25T09:57:56;34.30;99.90
3566;DHT22;1797;51.844;7.684;2022-08-25T10:00:33;34.50;99.90
3566;DHT22;1797;51.844;7.684;2022-08-25T10:03:18;34.60;99.90
3566;DHT22;1797;51.844;7.684;2022-08-25T10:06:06;34.80;99.90
3566;DHT22;1797;51.844;7.684;2022-08-25T10:08:37;34.90;99.90
3566;DHT22;1797;51.844;7.684;2022-08-25T10:14:17;35.40;99.90
3566;DHT22;1797;51.844;7.684;2022-08-25T10:16:45;35.30;99.90
3566;DHT22;1797;51.844;7.684;2022-08-25T10:19:25;35.40;99.90
3566;DHT22;1797;51.844;7.684;2022-08-25T10:22:30;35.50;99.90
3566;DHT22;1797;51.844;7.684;2022-08-25T10:24:59;35.50;99.90
3566;DHT22;1797;51.844;7.684;2022-08-25T10:32:58;36.20;99.90
3566;DHT22;1797;51.844;7.684;2022-08-25T10:36:07;36.30;99.90
3566;DHT22;1797;51.844;7.684;2022-08-25T10:38:41;36.20;99.90
3566;DHT22;1797;51.844;7.684;2022-08-25T10:49:54;36.10;99.90
3566;DHT22;1797;51.844;7.684;2022-08-25T10:52:22;36.40;99.90
3566;DHT22;1797;51.844;7.684;2022-08-25T10:55:05;36.50;99.90
3566;DHT22;1797;51.844;7.684;2022-08-25T10:57:44;36.80;99.90
3566;DHT22;1797;51.844;7.684;2022-08-25T11:00:17;37.00;99.90
3566;DHT22;1797;51.844;7.684;2022-08-25T11:05:25;36.90;99.90
3566;DHT22;1797;51.844;7.684;2022-08-25T11:07:57;37.00;99.90
3566;DHT22;1797;51.844;7.684;2022-08-25T11:10:30;37.20;99.90
3566;DHT22;1797;51.844;7.684;2022-08-25T11:13:03;37.10;99.90
3566;DHT22;1797;51.844;7.684;2022-08-25T11:15:54;37.50;99.90
3566;DHT22;1797;51.844;7.684;2022-08-25T11:18:20;37.90;99.90
3566;DHT22;1797;51.844;7.684;2022-08-25T11:23:26;38.10;99.90
3566;DHT22;1797;51.844;7.684;2022-08-25T11:25:58;38.10;99.90
3566;DHT22;1797;51.844;7.684;2022-08-25T11:31:11;37.80;99.90
3566;DHT22;1797;51.844;7.684;2022-08-25T11:33:38;37.90;99.90
3566;DHT22;1797;51.844;7.684;2022-08-25T11:36:43;38.00;99.90
3566;DHT22;1797;51.844;7.684;2022-08-25T11:39:30;38.10;99.90
3566;DHT22;1797;51.844;7.684;2022-08-25T11:49:27;37.90;99.90
3566;DHT22;1797;51.844;7.684;2022-08-25T11:51:59;38.20;99.90
3566;DHT22;1797;51.844;7.684;2022-08-25T11:54:37;37.90;99.90
3566;DHT22;1797;51.844;7.684;2022-08-25T11:57:17;38.00;99.90
3566;DHT22;1797;51.844;7.684;2022-08-25T12:02:52;38.20;99.90
3566;DHT22;1797;51.844;7.684;2022-08-25T12:10:24;37.90;99.90
3566;DHT22;1797;51.844;7.684;2022-08-25T12:13:00;37.50;99.90
3566;DHT22;1797;51.844;7.684;2022-08-25T12:21:08;37.90;99.90
3566;DHT22;1797;51.844;7.684;2022-08-25T12:26:35;38.10;99.90
3566;DHT22;1797;51.844;7.684;2022-08-25T12:29:30;37.70;99.90
3566;DHT22;1797;51.844;7.684;2022-08-25T12:31:59;36.60;99.90
3566;DHT22;1797;51.844;7.684;2022-08-25T12:37:21;37.30;99.90
3566;DHT22;1797;51.844;7.684;2022-08-25T12:42:35;37.20;99.90
3566;DHT22;1797;51.844;7.684;2022-08-25T12:47:44;37.70;99.90
3566;DHT22;1797;51.844;7.684;2022-08-25T12:53:31;37.50;99.90
3566;DHT22;1797;51.844;7.684;2022-08-25T12:56:31;37.10;99.90
3566;DHT22;1797;51.844;7.684;2022-08-25T13:07:04;37.10;99.90
3566;DHT22;1797;51.844;7.684;2022-08-25T13:12:15;37.20;99.90
3566;DHT22;1797;51.844;7.684;2022-08-25T13:14:44;37.00;99.90
3566;DHT22;1797;51.844;7.684;2022-08-25T13:17:10;36.90;99.90
3566;DHT22;1797;51.844;7.684;2022-08-25T13:19:37;37.00;99.90
3566;DHT22;1797;51.844;7.684;2022-08-25T13:22:12;36.90;99.90
3566;DHT22;1797;51.844;7.684;2022-08-25T13:24:42;37.00;99.90
3566;DHT22;1797;51.844;7.684;2022-08-25T13:27:19;36.90;99.90
3566;DHT22;1797;51.844;7.684;2022-08-25T13:29:53;36.90;99.90
3566;DHT22;1797;51.844;7.684;2022-08-25T13:32:28;36.80;99.90
3566;DHT22;1797;51.844;7.684;2022-08-25T13:35:11;36.60;99.90
3566;DHT22;1797;51.844;7.684;2022-08-25T13:37:38;36.70;99.90
3566;DHT22;1797;51.844;7.684;2022-08-25T13:42:46;36.70;99.90
3566;DHT22;1797;51.844;7.684;2022-08-25T13:45:16;36.30;99.90
3566;DHT22;1797;51.844;7.684;2022-08-25T13:47:43;36.00;99.90
3566;DHT22;1797;51.844;7.684;2022-08-25T13:55:38;35.80;99.90
3566;DHT22;1797;51.844;7.684;2022-08-25T13:58:14;35.60;99.90
3566;DHT22;1797;51.844;7.684;2022-08-25T14:00:46;35.50;99.90
3566;DHT22;1797;51.844;7.684;2022-08-25T14:08:37;36.00;99.90
3566;DHT22;1797;51.844;7.684;2022-08-25T14:11:13;36.00;99.90
3566;DHT22;1797;51.844;7.684;2022-08-25T14:13:41;36.00;99.90
3566;DHT22;1797;51.844;7.684;2022-08-25T14:18:45;36.10;99.90
3566;DHT22;1797;51.844;7.684;2022-08-25T14:21:11;36.10;99.90
3566;DHT22;1797;51.844;7.684;2022-08-25T14:23:38;35.90;99.90
3566;DHT22;1797;51.844;7.684;2022-08-25T14:26:04;35.70;99.90
3566;DHT22;1797;51.844;7.684;2022-08-25T14:28:30;35.40;99.90
3566;DHT22;1797;51.844;7.684;2022-08-25T14:31:23;35.10;99.90
3566;DHT22;1797;51.844;7.684;2022-08-25T14:33:55;35.10;99.90
3566;DHT22;1797;51.844;7.684;2022-08-25T14:36:22;35.10;99.90
3566;DHT22;1797;51.844;7.684;2022-08-25T14:38:47;34.90;99.90
3566;DHT22;1797;51.844;7.684;2022-08-25T14:41:13;34.90;99.90
3566;DHT22;1797;51.844;7.684;2022-08-25T14:43:38;34.70;99.90
3566;DHT22;1797;51.844;7.684;2022-08-25T14:46:25;34.50;99.90
3566;DHT22;1797;51.844;7.684;2022-08-25T14:48:55;34.20;99.90
3566;DHT22;1797;51.844;7.684;2022-08-25T14:51:22;34.00;99.90
3566;DHT22;1797;51.844;7.684;2022-08-25T14:53:49;33.70;99.90
3566;DHT22;1797;51.844;7.684;2022-08-25T14:56:15;33.50;99.90
3566;DHT22;1797;51.844;7.684;2022-08-25T14:58:41;33.40;99.90
3566;DHT22;1797;51.844;7.684;2022-08-25T15:01:06;33.50;99.90
3566;DHT22;1797;51.844;7.684;2022-08-25T15:03:36;33.50;99.90
3566;DHT22;1797;51.844;7.684;2022-08-25T15:06:02;33.60;99.90
3566;DHT22;1797;51.844;7.684;2022-08-25T15:08:29;33.70;99.90
3566;DHT22;1797;51.844;7.684;2022-08-25T15:11:13;33.60;99.90
3566;DHT22;1797;51.844;7.684;2022-08-25T15:13:39;33.60;99.90
3566;DHT22;1797;51.844;7.684;2022-08-25T15:16:06;33.50;99.90
3566;DHT22;1797;51.844;7.684;2022-08-25T15:18:32;33.50;99.90
3566;DHT22;1797;51.844;7.684;2022-08-25T15:20:57;33.50;99.90
3566;DHT22;1797;51.844;7.684;2022-08-25T15:23:23;33.50;99.90
3566;DHT22;1797;51.844;7.684;2022-08-25T15:25:53;33.40;99.90
3566;DHT22;1797;51.844;7.684;2022-08-25T15:28:20;33.50;99.90
3566;DHT22;1797;51.844;7.684;2022-08-25T15:30:45;33.60;99.90
3566;DHT22;1797;51.844;7.684;2022-08-25T15:33:12;33.70;99.90
3566;DHT22;1797;51.844;7.684;2022-08-25T15:35:38;33.70;99.90
3566;DHT22;1797;51.844;7.684;2022-08-25T15:38:03;33.90;99.90
3566;DHT22;1797;51.844;7.684;2022-08-25T15:40:29;33.90;99.90
3566;DHT22;1797;51.844;7.684;2022-08-25T15:42:55;33.90;99.90
3566;DHT22;1797;51.844;7.684;2022-08-25T15:45:20;33.90;99.90
3566;DHT22;1797;51.844;7.684;2022-08-25T15:47:46;33.90;99.90
3566;DHT22;1797;51.844;7.684;2022-08-25T15:50:14;33.80;99.90
3566;DHT22;1797;51.844;7.684;2022-08-25T15:52:41;33.70;99.90
3566;DHT22;1797;51.844;7.684;2022-08-25T15:55:08;33.70;99.90
3566;DHT22;1797;51.844;7.684;2022-08-25T15:57:34;33.90;99.90
3566;DHT22;1797;51.844;7.684;2022-08-25T15:59:59;33.90;99.90
3566;DHT22;1797;51.844;7.684;2022-08-25T16:02:25;34.00;99.90
3566;DHT22;1797;51.844;7.684;2022-08-25T16:05:10;34.20;99.90
3566;DHT22;1797;51.844;7.684;2022-08-25T16:07:36;34.20;99.90
3566;DHT22;1797;51.844;7.684;2022-08-25T16:10:03;34.20;99.90
3566;DHT22;1797;51.844;7.684;2022-08-25T16:12:29;34.20;99.90
3566;DHT22;1797;51.844;7.684;2022-08-25T16:14:54;34.30;99.90
3566;DHT22;1797;51.844;7.684;2022-08-25T16:17:20;34.30;99.90
3566;DHT22;1797;51.844;7.684;2022-08-25T16:19:47;34.40;99.90
3566;DHT22;1797;51.844;7.684;2022-08-25T16:22:12;34.60;99.90
3566;DHT22;1797;51.844;7.684;2022-08-25T16:24:40;34.70;99.90
3566;DHT22;1797;51.844;7.684;2022-08-25T16:27:06;34.90;99.90
3566;DHT22;1797;51.844;7.684;2022-08-25T16:29:35;35.00;99.90
3566;DHT22;1797;51.844;7.684;2022-08-25T16:32:04;35.20;99.90
3566;DHT22;1797;51.844;7.684;2022-08-25T16:34:31;35.30;99.90
3566;DHT22;1797;51.844;7.684;2022-08-25T16:36:57;35.20;99.90
3566;DHT22;1797;51.844;7.684;2022-08-25T16:39:23;35.10;99.90
3566;DHT22;1797;51.844;7.684;2022-08-25T16:41:49;35.10;99.90
3566;DHT22;1797;51.844;7.684;2022-08-25T16:44:15;35.20;99.90
3566;DHT22;1797;51.844;7.684;2022-08-25T16:46:41;35.40;99.90
3566;DHT22;1797;51.844;7.684;2022-08-25T16:49:08;35.40;99.90
3566;DHT22;1797;51.844;7.684;2022-08-25T16:51:36;35.30;99.90
3566;DHT22;1797;51.844;7.684;2022-08-25T16:54:02;35.20;99.90
3566;DHT22;1797;51.844;7.684;2022-08-25T16:56:47;35.00;99.90
3566;DHT22;1797;51.844;7.684;2022-08-25T16:59:12;35.00;99.90
3566;DHT22;1797;51.844;7.684;2022-08-25T17:01:39;34.90;99.90
3566;DHT22;1797;51.844;7.684;2022-08-25T17:04:06;35.10;99.90
3566;DHT22;1797;51.844;7.684;2022-08-25T17:06:40;35.10;99.90
3566;DHT22;1797;51.844;7.684;2022-08-25T17:09:08;35.00;99.90
3566;DHT22;1797;51.844;7.684;2022-08-25T17:11:40;35.00;99.90
3566;DHT22;1797;51.844;7.684;2022-08-25T17:14:08;35.10;99.90
3566;DHT22;1797;51.844;7.684;2022-08-25T17:16:34;35.00;99.90
3566;DHT22;1797;51.844;7.684;2022-08-25T17:19:03;34.90;99.90
3566;DHT22;1797;51.844;7.684;2022-08-25T17:21:35;34.80;99.90
3566;DHT22;1797;51.844;7.684;2022-08-25T17:24:03;34.80;99.90
3566;DHT22;1797;51.844;7.684;2022-08-25T17:26:29;34.70;99.90
3566;DHT22;1797;51.844;7.684;2022-08-25T17:28:56;34.60;99.90
3566;DHT22;1797;51.844;7.684;2022-08-25T17:31:22;34.50;99.90
3566;DHT22;1797;51.844;7.684;2022-08-25T17:33:48;34.30;99.90
3566;DHT22;1797;51.844;7.684;2022-08-25T17:36:14;34.10;99.90
3566;DHT22;1797;51.844;7.684;2022-08-25T17:38:41;33.90;99.90
3566;DHT22;1797;51.844;7.684;2022-08-25T17:41:08;33.80;99.90
3566;DHT22;1797;51.844;7.684;2022-08-25T17:43:40;33.50;99.90
3566;DHT22;1797;51.844;7.684;2022-08-25T17:46:06;33.20;99.90
3566;DHT22;1797;51.844;7.684;2022-08-25T17:48:34;32.90;99.90
3566;DHT22;1797;51.844;7.684;2022-08-25T17:51:00;32.60;99.90
3566;DHT22;1797;51.844;7.684;2022-08-25T17:53:26;32.40;99.90
3566;DHT22;1797;51.844;7.684;2022-08-25T17:56:08;32.20;99.90
3566;DHT22;1797;51.844;7.684;2022-08-25T17:58:34;32.00;99.90
3566;DHT22;1797;51.844;7.684;2022-08-25T18:01:00;31.80;99.90
3566;DHT22;1797;51.844;7.684;2022-08-25T18:03:27;31.50;99.90
3566;DHT22;1797;51.844;7.684;2022-08-25T18:05:54;31.40;99.90
3566;DHT22;1797;51.844;7.684;2022-08-25T18:10:49;30.90;1.00
3566;DHT22;1797;51.844;7.684;2022-08-25T18:15:46;30.50;1.00
3566;DHT22;1797;51.844;7.684;2022-08-25T18:20:43;30.40;1.00
3566;DHT22;1797;51.844;7.684;2022-08-25T18:23:11;30.10;1.00
3566;DHT22;1797;51.844;7.684;2022-08-25T18:25:37;30.10;1.00
3566;DHT22;1797;51.844;7.684;2022-08-25T18:28:06;29.80;1.00
3566;DHT22;1797;51.844;7.684;2022-08-25T18:30:34;29.60;99.90
3566;DHT22;1797;51.844;7.684;2022-08-25T18:33:00;29.60;99.90
3566;DHT22;1797;51.844;7.684;2022-08-25T18:35:25;29.50;99.90
3566;DHT22;1797;51.844;7.684;2022-08-25T18:37:51;29.40;99.90
3566;DHT22;1797;51.844;7.684;2022-08-25T18:40:36;29.30;99.90
3566;DHT22;1797;51.844;7.684;2022-08-25T18:43:04;29.20;99.90
3566;DHT22;1797;51.844;7.684;2022-08-25T18:45:38;29.10;99.90
3566;DHT22;1797;51.844;7.684;2022-08-25T18:48:04;28.90;99.90
3566;DHT22;1797;51.844;7.684;2022-08-25T18:50:33;28.80;99.90
3566;DHT22;1797;51.844;7.684;2022-08-25T18:52:58;28.70;99.90
3566;DHT22;1797;51.844;7.684;2022-08-25T18:55:25;28.60;99.90
3566;DHT22;1797;51.844;7.684;2022-08-25T18:57:51;28.50;99.90
3566;DHT22;1797;51.844;7.684;2022-08-25T19:00:20;28.40;99.90
3566;DHT22;1797;51.844;7.684;2022-08-25T19:02:48;28.30;99.90
3566;DHT22;1797;51.844;7.684;2022-08-25T19:05:14;28.10;99.90
3566;DHT22;1797;51.844;7.684;2022-08-25T19:07:40;28.00;99.90
3566;DHT22;1797;51.844;7.684;2022-08-25T19:10:06;27.90;99.90
3566;DHT22;1797;51.844;7.684;2022-08-25T19:12:32;27.80;99.90
3566;DHT22;1797;51.844;7.684;2022-08-25T19:14:58;27.70;99.90